createdAt,value
2023-04-24T00:00:15.378Z,8.2
2023-04-24T00:06:08.988Z,8.1
2023-04-24T00:12:00.430Z,8
2023-04-24T00:17:52.266Z,7.9
2023-04-24T00:23:43.515Z,7.8
2023-04-24T00:29:34.065Z,7.7
2023-04-24T00:35:26.202Z,7.6
2023-04-24T00:41:17.344Z,7.5
2023-04-24T00:47:08.160Z,7.4
2023-04-24T00:52:59.247Z,7.4
2023-04-24T00:58:35.036Z,7.3
2023-04-24T01:04:28.039Z,7.3
2023-04-24T01:10:19.903Z,7.3
2023-04-24T01:16:11.606Z,7.2
2023-04-24T01:22:03.651Z,7.1
2023-04-24T01:27:55.035Z,7.1
2023-04-24T01:33:47.034Z,6.9
2023-04-24T01:39:23.134Z,6.9
2023-04-24T01:45:14.873Z,6.8
2023-04-24T01:51:06.901Z,6.7
2023-04-24T01:56:58.038Z,6.6
2023-04-24T02:02:50.773Z,6.5
2023-04-24T02:08:44.035Z,6.4
2023-04-24T02:14:34.904Z,6.3
2023-04-24T02:20:26.470Z,6.2
2023-04-24T02:26:02.369Z,6.1
2023-04-24T02:31:53.065Z,5.9
2023-04-24T02:37:44.805Z,5.8
2023-04-24T02:43:36.086Z,5.8
2023-04-24T02:49:27.665Z,5.7
2023-04-24T02:55:19.735Z,5.6
2023-04-24T03:01:11.287Z,5.6
2023-04-24T03:07:04.498Z,5.4
2023-04-24T03:12:56.298Z,5.4
2023-04-24T03:18:50.891Z,5.3
2023-04-24T03:24:42.755Z,5.3
2023-04-24T03:30:34.544Z,5.2
2023-04-24T03:36:26.871Z,5.1
2023-04-24T03:42:02.969Z,5.1
2023-04-24T03:47:57.169Z,5
2023-04-24T03:53:50.064Z,5
2023-04-24T03:59:41.479Z,5
2023-04-24T04:05:35.104Z,5
2023-04-24T04:11:26.695Z,5.1
2023-04-24T04:17:18.133Z,5.1
2023-04-24T04:23:09.631Z,5.2
2023-04-24T04:29:01.058Z,5.3
2023-04-24T04:34:53.049Z,5.4
2023-04-24T04:40:44.935Z,5.6
2023-04-24T04:46:36.899Z,5.8
2023-04-24T04:52:28.677Z,6.1
2023-04-24T04:58:20.904Z,6.3
2023-04-24T05:04:15.579Z,6.6
2023-04-24T05:10:14.781Z,7
2023-04-24T05:16:18.525Z,7.4
2023-04-24T05:22:10.684Z,7.7
2023-04-24T05:27:45.819Z,8
2023-04-24T05:33:22.768Z,8.4
2023-04-24T05:39:14.420Z,8.9
2023-04-24T05:45:05.605Z,9.4
2023-04-24T05:50:41.675Z,9.9
2023-04-24T05:56:33.358Z,10.9
2023-04-24T06:02:24.996Z,12.4
2023-04-24T06:08:19.664Z,14.7
2023-04-24T06:13:41.171Z,17.4
2023-04-24T06:19:33.633Z,13.3
2023-04-24T06:25:24.855Z,20.4
2023-04-24T06:31:01.316Z,19.4
2023-04-24T06:37:01.196Z,19.4
2023-04-24T06:42:37.718Z,20.6
2023-04-24T06:48:14.579Z,21.4
2023-04-24T06:54:06.513Z,22.1
2023-04-24T06:59:58.262Z,23
2023-04-24T07:05:53.628Z,23.8
2023-04-24T07:11:45.399Z,24.3
2023-04-24T07:17:22.731Z,24.6
2023-04-24T07:22:59.184Z,25.6
2023-04-24T07:28:37.266Z,26.8
2023-04-24T07:34:29.868Z,28
2023-04-24T07:40:21.672Z,29
2023-04-24T07:46:13.588Z,29.9
2023-04-24T07:52:19.909Z,31
2023-04-24T07:58:14.196Z,31.9
2023-04-24T08:04:07.340Z,32.9
2023-04-24T08:10:04.368Z,33.9
2023-04-24T08:15:40.350Z,34.8
2023-04-24T08:21:32.853Z,35.8
2023-04-24T08:27:24.271Z,36.8
2023-04-24T08:33:03.350Z,37.5
2023-04-24T08:38:49.087Z,38.4
2023-04-24T08:44:40.395Z,39.4
2023-04-24T08:50:48.863Z,40.3
2023-04-24T08:56:40.242Z,41.2
2023-04-24T09:02:16.722Z,42.1
2023-04-24T09:08:11.723Z,42.9
2023-04-24T09:14:03.034Z,43.6
2023-04-24T09:19:54.742Z,43.8
2023-04-24T09:25:31.107Z,43.9
2023-04-24T09:31:08.392Z,45.1
2023-04-24T09:36:44.221Z,45.9
2023-04-24T09:42:35.909Z,46.8
2023-04-24T09:48:37.907Z,47.4
2023-04-24T09:54:33.268Z,48.2
2023-04-24T10:00:25.149Z,48.8
2023-04-24T10:06:18.655Z,48.8
2023-04-24T10:12:10.882Z,49.8
2023-04-24T10:18:03.287Z,50.5
2023-04-24T10:23:55.235Z,50.5
2023-04-24T10:29:46.223Z,50.6
2023-04-24T10:35:38.879Z,51.4
2023-04-24T10:41:30.444Z,51.3
2023-04-24T10:47:22.995Z,52.1
2023-04-24T10:53:14.485Z,51.8
2023-04-24T10:59:06.299Z,52.7
2023-04-24T11:04:45.098Z,51.8
2023-04-24T11:10:38.836Z,50.9
2023-04-24T11:16:15.533Z,50
